Time;durP1;ratioP1;P1;durP2;ratioP2;P2;SDS_P1;SDS_P2;PMS_P1;PMS_P2;Temp;Humidity;BMP_temperature;BMP_pressure;BME280_temperature;BME280_humidity;BME280_pressure;Samples;Min_cycle;Max_cycle;Signal;HPM_P1;HPM_P2
2023/05/13 00:01:27;;;;;;;11.57;10.48;;;;;;;15.02;85.83;102197.41;5017753;28;20321;-74
2023/05/13 00:03:52;;;;;;;11.90;10.75;;;;;;;15.02;85.79;102193.91;5018342;28;20068;-74
2023/05/13 00:06:18;;;;;;;9.02;8.13;;;;;;;15.01;85.22;102198.34;5018014;28;20087;-74
2023/05/13 00:08:43;;;;;;;11.20;10.05;;;;;;;14.99;84.22;102197.53;5016864;28;20084;-74
2023/05/13 00:11:09;;;;;;;13.57;9.48;;;;;;;14.99;83.77;102197.53;5018266;28;20071;-74
2023/05/13 00:13:34;;;;;;;9.13;8.38;;;;;;;14.97;84.12;102194.97;5017276;28;20049;-74
2023/05/13 00:15:59;;;;;;;10.88;8.57;;;;;;;14.94;82.58;102189.78;5017898;28;20037;-74
2023/05/13 00:18:25;;;;;;;9.63;8.60;;;;;;;14.92;81.70;102196.06;5018170;28;20045;-74
2023/05/13 00:20:51;;;;;;;8.82;7.93;;;;;;;14.91;81.24;102189.91;5021192;28;20056;-74
2023/05/13 00:23:16;;;;;;;7.43;6.45;;;;;;;14.91;81.14;102189.03;5018243;28;20065;-74
2023/05/13 00:25:43;;;;;;;11.75;6.90;;;;;;;14.90;80.32;102182.06;5017537;28;20061;-74
2023/05/13 00:28:09;;;;;;;6.80;6.30;;;;;;;14.86;78.15;102186.59;5017940;28;20050;-74
2023/05/13 00:30:35;;;;;;;7.07;6.43;;;;;;;14.85;76.85;102192.78;5017464;28;20061;-74
2023/05/13 00:33:01;;;;;;;6.13;5.53;;;;;;;14.84;77.31;102188.41;5017872;28;20240;-74
2023/05/13 00:35:26;;;;;;;6.22;5.70;;;;;;;14.83;76.63;102186.69;5017582;28;20046;-74
2023/05/13 00:37:51;;;;;;;7.40;4.90;;;;;;;14.82;76.08;102184.13;5016501;28;20045;-74
2023/05/13 00:40:22;;;;;;;8.55;4.75;;;;;;;14.82;76.50;102186.75;5017249;28;20053;-74
2023/05/13 00:42:49;;;;;;;5.70;5.25;;;;;;;14.81;75.82;102195.56;5017293;28;20128;-73
2023/05/13 00:45:14;;;;;;;9.57;5.00;;;;;;;14.78;75.03;102189.50;5017309;28;22009;-74
2023/05/13 00:47:41;;;;;;;7.22;4.55;;;;;;;14.77;74.36;102192.19;5016938;28;20037;-74
2023/05/13 00:50:08;;;;;;;6.15;4.80;;;;;;;14.75;73.86;102194.91;5017570;28;20459;-74
2023/05/13 00:52:35;;;;;;;7.07;3.85;;;;;;;14.74;73.65;102192.31;5017037;28;20515;-74
2023/05/13 00:55:01;;;;;;;5.00;3.65;;;;;;;14.74;74.39;102187.03;5017759;28;20105;-74
2023/05/13 00:57:27;;;;;;;4.15;3.85;;;;;;;14.74;74.85;102190.53;5017606;28;20046;-74
2023/05/13 00:59:53;;;;;;;4.50;3.83;;;;;;;14.76;74.54;102190.47;5017081;28;20091;-73
2023/05/13 01:02:41;;;;;;;4.32;3.85;;;;;;;14.74;74.60;102187.03;5016894;28;20061;-73
2023/05/13 01:05:41;;;;;;;4.45;4.05;;;;;;;14.72;73.72;102189.72;5016731;28;20403;-73
2023/05/13 01:08:27;;;;;;;6.47;4.30;;;;;;;14.70;72.88;102190.72;5017417;28;20040;-73
2023/05/13 01:11:02;;;;;;;4.35;3.95;;;;;;;14.69;73.08;102189.84;5019093;28;20042;-73
2023/05/13 01:13:35;;;;;;;5.13;4.40;;;;;;;14.66;73.37;102184.69;5023435;28;20044;-73
2023/05/13 01:16:32;;;;;;;5.68;4.00;;;;;;;14.65;73.53;102185.59;5023974;28;20033;-74
2023/05/13 01:19:03;;;;;;;3.78;3.50;;;;;;;14.63;73.56;102181.31;5023610;28;20415;-74
2023/05/13 01:21:35;;;;;;;4.40;4.03;;;;;;;14.61;73.93;102180.47;5023947;28;20038;-74
2023/05/13 01:24:00;;;;;;;5.65;4.50;;;;;;;14.57;73.21;102185.88;5023839;28;20395;-74
2023/05/13 01:26:27;;;;;;;4.82;3.80;;;;;;;14.56;73.75;102184.13;5023697;28;20026;-74
2023/05/13 01:28:53;;;;;;;5.38;4.88;;;;;;;14.55;73.91;102189.44;5023071;28;20065;-74
2023/05/13 01:31:21;;;;;;;10.55;4.50;;;;;;;14.52;73.64;102187.78;5023806;28;20276;-74
2023/05/13 01:33:48;;;;;;;7.72;4.90;;;;;;;14.51;73.62;102190.47;5023703;28;20022;-74
2023/05/13 01:36:13;;;;;;;4.88;4.50;;;;;;;14.49;74.20;102190.53;5024195;28;20359;-74
2023/05/13 01:38:40;;;;;;;5.38;4.95;;;;;;;14.48;74.45;102182.66;5023733;28;20084;-74
2023/05/13 01:41:05;;;;;;;6.00;5.50;;;;;;;14.47;75.21;102183.59;5024114;28;20049;-74
2023/05/13 01:43:31;;;;;;;6.63;4.47;;;;;;;14.46;75.55;102184.50;5022953;28;20042;-74
2023/05/13 01:45:59;;;;;;;8.02;7.22;;;;;;;14.44;75.68;102181.91;5023752;28;20083;-74
2023/05/13 01:48:25;;;;;;;9.68;6.65;;;;;;;14.42;75.86;102180.25;5023362;28;20088;-74
2023/05/13 01:50:51;;;;;;;6.38;5.90;;;;;;;14.39;76.20;102182.09;5023424;28;20049;-74
2023/05/13 01:53:17;;;;;;;5.85;5.35;;;;;;;14.38;76.68;102180.34;5023123;28;20037;-74
2023/05/13 01:55:42;;;;;;;8.95;6.57;;;;;;;14.35;76.64;102191.03;5022639;28;20076;-74
2023/05/13 01:58:08;;;;;;;7.60;6.85;;;;;;;14.33;77.01;102186.72;5023478;28;20038;-74
2023/05/13 02:00:33;;;;;;;7.57;7.00;;;;;;;14.29;77.12;102185.09;5022293;28;20361;-74
2023/05/13 02:02:58;;;;;;;7.50;6.60;;;;;;;14.26;77.50;102183.44;5023453;28;20084;-74
2023/05/13 02:05:24;;;;;;;6.80;6.30;;;;;;;14.23;77.52;102188.81;5023258;28;20041;-74
2023/05/13 02:07:50;;;;;;;8.30;7.50;;;;;;;14.21;77.29;102188.00;5023396;28;20083;-74
2023/05/13 02:10:15;;;;;;;6.95;6.25;;;;;;;14.21;77.88;102193.28;5021750;28;20038;-74
2023/05/13 02:12:40;;;;;;;6.95;6.35;;;;;;;14.19;77.86;102193.31;5023451;28;20037;-74
2023/05/13 02:15:06;;;;;;;7.15;6.55;;;;;;;14.15;77.80;102188.19;5023383;28;20100;-74
2023/05/13 02:17:32;;;;;;;11.43;8.10;;;;;;;14.11;77.11;102191.84;5035609;28;20037;-74
2023/05/13 02:19:57;;;;;;;6.70;6.07;;;;;;;14.05;77.47;102187.66;5029119;28;20113;-74
2023/05/13 02:22:23;;;;;;;14.15;7.10;;;;;;;14.02;77.51;102190.38;5021158;28;20045;-74
2023/05/13 02:24:48;;;;;;;6.50;5.60;;;;;;;14.00;77.84;102193.06;5019664;28;20333;-74
2023/05/13 02:27:15;;;;;;;7.55;6.85;;;;;;;13.98;77.99;102196.69;5020330;28;20049;-72
2023/05/13 02:29:40;;;;;;;6.88;5.85;;;;;;;13.96;77.91;102193.25;5001971;28;20041;-71
2023/05/13 02:32:06;;;;;;;7.57;6.90;;;;;;;13.94;78.34;102192.44;5020105;28;20034;-71
2023/05/13 02:34:32;;;;;;;6.75;6.20;;;;;;;13.94;78.57;102197.69;5019144;28;20053;-71
2023/05/13 02:36:57;;;;;;;8.15;6.70;;;;;;;13.91;77.99;102203.06;5020146;28;20049;-71
2023/05/13 02:39:23;;;;;;;10.00;7.63;;;;;;;13.85;77.05;102204.13;5019440;28;20072;-71
2023/05/13 02:41:48;;;;;;;7.80;7.00;;;;;;;13.80;75.98;102204.25;5019635;28;20038;-71
2023/05/13 02:44:14;;;;;;;8.10;7.28;;;;;;;13.75;75.97;102202.69;5019271;28;20034;-71
2023/05/13 02:46:39;;;;;;;6.10;5.70;;;;;;;13.74;76.92;102199.22;5019701;28;20049;-71
2023/05/13 02:49:05;;;;;;;6.40;5.80;;;;;;;13.73;77.32;102200.09;5019478;28;20045;-71
2023/05/13 02:51:30;;;;;;;7.43;5.97;;;;;;;13.70;77.07;102196.72;5019640;28;20294;-71
2023/05/13 02:53:56;;;;;;;6.75;6.20;;;;;;;13.65;75.15;102196.88;5017684;28;20054;-71
2023/05/13 02:56:21;;;;;;;8.95;6.60;;;;;;;13.61;75.76;102204.00;5018338;28;20104;-73
2023/05/13 02:58:47;;;;;;;6.18;5.68;;;;;;;13.59;75.71;102203.19;5017800;28;20046;-73
2023/05/13 03:01:12;;;;;;;5.85;5.45;;;;;;;13.57;76.33;102209.41;5019259;28;20048;-73
2023/05/13 03:03:37;;;;;;;5.32;4.95;;;;;;;13.54;76.20;102202.47;5018878;28;20037;-73
2023/05/13 03:06:04;;;;;;;6.65;5.93;;;;;;;13.51;76.13;102196.44;5018317;28;20048;-73
2023/05/13 03:08:30;;;;;;;6.50;6.00;;;;;;;13.48;75.36;102202.69;5009924;28;20072;-73
2023/05/13 03:10:55;;;;;;;6.93;6.32;;;;;;;13.46;75.67;102201.00;5018599;28;20329;-73
2023/05/13 03:13:20;;;;;;;10.63;6.80;;;;;;;13.41;74.22;102195.88;5019310;28;20124;-73
2023/05/13 03:15:46;;;;;;;6.93;6.22;;;;;;;13.37;74.55;102194.22;5019496;28;20049;-73
2023/05/13 03:18:11;;;;;;;10.55;6.80;;;;;;;13.34;74.37;102186.44;5017973;28;20069;-73
2023/05/13 03:20:37;;;;;;;7.28;6.07;;;;;;;13.29;73.79;102191.81;5018377;28;20052;-73
2023/05/13 03:23:02;;;;;;;6.25;5.75;;;;;;;13.25;73.07;102200.72;5019228;28;20037;-73
2023/05/13 03:25:27;;;;;;;7.20;6.10;;;;;;;13.22;73.80;102198.16;5018604;28;20064;-73
2023/05/13 03:27:53;;;;;;;8.25;5.55;;;;;;;13.21;74.05;102201.72;5017985;28;20056;-73
2023/05/13 03:30:18;;;;;;;5.80;5.30;;;;;;;13.19;74.74;102200.91;5018516;28;20249;-73
2023/05/13 03:32:44;;;;;;;8.93;6.25;;;;;;;13.16;74.14;102201.00;5018828;28;20037;-73
2023/05/13 03:35:10;;;;;;;5.43;5.03;;;;;;;13.15;74.48;102197.50;5018234;28;20072;-73
2023/05/13 03:37:36;;;;;;;6.20;5.70;;;;;;;13.16;75.91;102195.72;5018255;28;20042;-73
2023/05/13 03:40:01;;;;;;;12.35;6.38;;;;;;;13.14;74.54;102201.03;5017981;28;20033;-73
2023/05/13 03:42:29;;;;;;;6.60;6.00;;;;;;;13.14;75.70;102203.66;5018601;28;20241;-73
2023/05/13 03:44:55;;;;;;;5.80;5.30;;;;;;;13.10;75.52;102209.94;5019917;28;20036;-73
2023/05/13 03:47:21;;;;;;;7.05;5.60;;;;;;;13.10;76.02;102215.19;5037880;28;20041;-73
2023/05/13 03:49:47;;;;;;;6.07;5.30;;;;;;;13.11;76.38;102214.25;5024645;28;20399;-73
2023/05/13 03:52:13;;;;;;;5.75;5.22;;;;;;;13.10;76.18;102220.44;5018012;28;20061;-73
2023/05/13 03:54:38;;;;;;;6.72;6.00;;;;;;;13.07;75.41;102216.13;5018296;28;20411;-73
2023/05/13 03:57:05;;;;;;;5.68;5.18;;;;;;;13.06;76.25;102211.78;5018517;28;20046;-73
2023/05/13 03:59:31;;;;;;;10.63;5.18;;;;;;;13.05;76.39;102219.72;5018161;28;20060;-73
2023/05/13 04:01:56;;;;;;;6.40;5.80;;;;;;;13.04;76.07;102220.59;5017273;28;20046;-73
2023/05/13 04:04:22;;;;;;;10.52;6.80;;;;;;;13.00;75.51;102227.72;5017802;28;20069;-73
2023/05/13 04:06:47;;;;;;;5.90;5.38;;;;;;;12.99;76.30;102220.75;5017833;28;20049;-73
2023/05/13 04:09:12;;;;;;;5.82;5.38;;;;;;;12.99;76.66;102225.16;5017906;28;20403;-73
2023/05/13 04:11:38;;;;;;;6.53;5.78;;;;;;;12.98;76.99;102226.06;5018038;28;20053;-73
2023/05/13 04:14:03;;;;;;;8.15;6.00;;;;;;;12.97;76.73;102219.06;5019229;28;20033;-73
2023/05/13 04:16:29;;;;;;;5.63;5.10;;;;;;;12.95;76.90;102219.13;5017754;28;20416;-73
2023/05/13 04:18:54;;;;;;;6.40;4.82;;;;;;;12.95;76.91;102221.75;5017723;28;20041;-73
2023/05/13 04:21:19;;;;;;;6.30;5.32;;;;;;;12.94;77.40;102216.53;5017968;28;20045;-73
2023/05/13 04:23:45;;;;;;;7.78;6.93;;;;;;;12.90;76.63;102215.75;5017509;28;20048;-73
2023/05/13 04:26:10;;;;;;;8.23;6.00;;;;;;;12.90;77.31;102225.41;5018276;28;20049;-73
2023/05/13 04:28:36;;;;;;;6.53;5.88;;;;;;;12.89;77.34;102227.16;5015797;28;20285;-73
2023/05/13 04:31:02;;;;;;;6.93;6.30;;;;;;;12.85;77.13;102225.53;5017549;28;20364;-73
2023/05/13 04:33:28;;;;;;;7.63;5.78;;;;;;;12.85;77.82;102236.91;5017955;28;20232;-73
2023/05/13 04:35:53;;;;;;;6.30;5.72;;;;;;;12.85;78.20;102234.28;5017490;28;20087;-72
2023/05/13 04:38:18;;;;;;;7.35;5.80;;;;;;;12.86;78.47;102236.03;5017579;28;20470;-72
2023/05/13 04:40:44;;;;;;;6.70;6.10;;;;;;;12.84;77.92;102237.84;5017340;28;20232;-72
2023/05/13 04:43:13;;;;;;;6.70;5.78;;;;;;;12.84;78.29;102237.84;5017930;28;20049;-72
2023/05/13 04:45:38;;;;;;;;;;;;;;;12.83;78.40;102238.72;5017359;28;20137;-72
2023/05/13 04:48:04;;;;;;;12.17;6.43;;;;;;;12.82;78.33;102242.28;5018114;28;20122;-72
2023/05/13 04:50:30;;;;;;;7.45;6.78;;;;;;;12.80;78.46;102244.06;5017029;28;20289;-72
2023/05/13 04:52:56;;;;;;;7.63;6.88;;;;;;;12.79;78.90;102238.88;5017725;28;20038;-72
2023/05/13 04:55:21;;;;;;;15.32;8.15;;;;;;;12.76;78.94;102239.78;5017717;28;20120;-72
2023/05/13 04:57:47;;;;;;;10.00;7.88;;;;;;;12.76;79.20;102236.31;5016735;28;20341;-72
2023/05/13 05:00:13;;;;;;;10.02;7.80;;;;;;;12.75;79.47;102238.09;5017584;28;20092;-72
2023/05/13 05:02:38;;;;;;;11.98;8.10;;;;;;;12.74;79.98;102246.88;5016629;28;20038;-72
2023/05/13 05:05:04;;;;;;;9.85;8.88;;;;;;;12.73;80.15;102242.50;5017700;28;20049;-72
2023/05/13 05:07:30;;;;;;;12.30;9.57;;;;;;;12.73;80.50;102242.50;5017511;28;20037;-72
2023/05/13 05:09:55;;;;;;;14.25;10.18;;;;;;;12.74;80.63;102248.66;5016942;28;20057;-72
2023/05/13 05:12:21;;;;;;;9.70;8.75;;;;;;;12.74;80.96;102244.25;5016735;28;20042;-72
2023/05/13 05:14:46;;;;;;;15.52;10.88;;;;;;;12.70;81.52;102242.59;5016921;28;20045;-72
2023/05/13 05:17:11;;;;;;;12.85;9.45;;;;;;;12.71;81.81;102241.69;5015990;28;20045;-72
2023/05/13 05:19:37;;;;;;;17.65;10.85;;;;;;;12.70;82.05;102245.22;5016809;28;20037;-72
2023/05/13 05:22:03;;;;;;;12.00;10.65;;;;;;;12.71;82.16;102252.19;5017196;28;20053;-72
2023/05/13 05:24:28;;;;;;;16.80;10.02;;;;;;;12.72;82.60;102251.31;5015315;28;20321;-72
2023/05/13 05:26:54;;;;;;;13.10;10.50;;;;;;;12.72;82.90;102247.81;5017978;28;20133;-72
2023/05/13 05:29:19;;;;;;;18.45;11.13;;;;;;;12.71;83.23;102254.81;5027652;28;20128;-72
2023/05/13 05:31:45;;;;;;;12.13;11.02;;;;;;;12.70;83.09;102245.22;5016722;28;20068;-72
2023/05/13 05:34:11;;;;;;;17.17;12.07;;;;;;;12.72;83.76;102251.31;5016148;28;20048;-72
2023/05/13 05:36:36;;;;;;;14.18;10.70;;;;;;;12.73;83.80;102255.66;5016653;28;20030;-72
2023/05/13 05:39:01;;;;;;;14.93;12.45;;;;;;;12.75;83.88;102252.97;5015031;28;20351;-72
2023/05/13 05:41:27;;;;;;;14.43;11.75;;;;;;;12.77;83.87;102253.78;5016387;28;20104;-72
2023/05/13 05:43:52;;;;;;;14.35;10.20;;;;;;;12.79;83.94;102252.88;5014330;28;20065;-72
2023/05/13 05:46:18;;;;;;;15.48;12.43;;;;;;;12.80;84.48;102258.97;5016181;28;20330;-72
2023/05/13 05:48:43;;;;;;;14.70;11.05;;;;;;;12.82;84.20;102259.78;5015994;28;20038;-74
2023/05/13 05:51:09;;;;;;;18.30;12.82;;;;;;;12.82;84.67;102259.78;5014990;28;20101;-72
2023/05/13 05:53:36;;;;;;;12.57;11.23;;;;;;;12.81;84.75;102261.56;5015586;28;20046;-74
2023/05/13 05:56:02;;;;;;;16.30;12.52;;;;;;;12.82;84.98;102259.78;5016419;28;20100;-72
2023/05/13 05:58:28;;;;;;;18.63;13.00;;;;;;;12.82;84.99;102265.94;5019100;28;20038;-72
2023/05/13 06:00:53;;;;;;;22.65;12.52;;;;;;;12.86;84.75;102264.94;5019313;28;20115;-72
2023/05/13 06:03:20;;;;;;;13.85;12.45;;;;;;;12.89;84.83;102265.75;5019465;28;20038;-72
2023/05/13 06:05:45;;;;;;;14.80;12.48;;;;;;;12.89;85.21;102266.59;5020310;28;20042;-72
2023/05/13 06:08:10;;;;;;;15.15;12.70;;;;;;;12.91;85.19;102270.06;5019746;28;20033;-72
2023/05/13 06:10:37;;;;;;;17.52;12.40;;;;;;;12.93;85.16;102272.66;5018671;28;20042;-74
2023/05/13 06:13:03;;;;;;;13.93;12.43;;;;;;;12.94;85.07;102262.09;5022793;28;20072;-74
2023/05/13 06:15:28;;;;;;;15.40;11.48;;;;;;;12.97;85.43;102269.03;5011560;28;20042;-72
2023/05/13 06:17:54;;;;;;;16.55;12.23;;;;;;;13.01;85.00;102263.66;5015386;28;20037;-74
2023/05/13 06:20:19;;;;;;;17.65;11.93;;;;;;;13.02;84.75;102253.97;5018516;28;20045;-74
2023/05/13 06:22:45;;;;;;;18.60;12.52;;;;;;;13.04;84.63;102263.56;5016868;28;20042;-72
2023/05/13 06:25:10;;;;;;;16.75;11.27;;;;;;;13.07;84.70;102262.59;5019011;28;20041;-72
2023/05/13 06:27:35;;;;;;;19.55;12.95;;;;;;;13.09;84.64;102263.41;5018314;28;20049;-72
2023/05/13 06:30:01;;;;;;;15.15;12.80;;;;;;;13.11;84.91;102264.25;5018465;28;20041;-74
2023/05/13 06:32:26;;;;;;;14.52;11.68;;;;;;;13.13;84.14;102259.78;5019645;28;20041;-74
2023/05/13 06:34:51;;;;;;;17.45;13.13;;;;;;;13.17;84.48;102277.22;5020713;28;20356;-72
2023/05/13 06:37:17;;;;;;;20.02;13.23;;;;;;;13.19;84.59;102266.66;5018080;28;20037;-72
2023/05/13 06:39:42;;;;;;;13.98;12.05;;;;;;;13.22;84.52;102263.94;5017551;28;20253;-72
2023/05/13 06:42:08;;;;;;;18.40;13.27;;;;;;;13.24;84.40;102267.38;5018966;28;20053;-72
2023/05/13 06:44:33;;;;;;;16.15;12.70;;;;;;;13.27;84.49;102262.03;5017786;28;20223;-72
2023/05/13 06:47:01;;;;;;;12.93;11.35;;;;;;;13.29;84.45;102268.09;5017845;28;20048;-74
2023/05/13 06:49:27;;;;;;;20.75;13.48;;;;;;;13.34;84.40;102270.66;5016478;28;20325;-72
2023/05/13 06:51:52;;;;;;;15.75;12.88;;;;;;;13.36;84.35;102269.69;5018169;28;20110;-72
2023/05/13 06:54:17;;;;;;;17.27;12.45;;;;;;;13.40;83.76;102270.47;5018192;28;20048;-72
2023/05/13 06:56:43;;;;;;;13.80;12.45;;;;;;;13.42;83.95;102271.28;5018232;28;20041;-72
2023/05/13 06:59:09;;;;;;;17.15;12.73;;;;;;;13.48;84.10;102275.47;5016044;28;20048;-72
2023/05/13 07:01:34;;;;;;;20.27;13.15;;;;;;;13.51;84.38;102264.88;5015630;28;20068;-72
2023/05/13 07:04:00;;;;;;;17.17;12.73;;;;;;;13.56;84.20;102266.44;5018152;28;20049;-73
2023/05/13 07:06:25;;;;;;;24.80;13.90;;;;;;;13.60;84.23;102265.44;5018154;28;20034;-72
2023/05/13 07:08:50;;;;;;;14.40;12.40;;;;;;;13.64;83.55;102266.22;5017048;28;20045;-72
2023/05/13 07:11:16;;;;;;;26.73;12.57;;;;;;;13.68;82.96;102256.44;5017697;28;20099;-73
2023/05/13 07:13:42;;;;;;;19.08;11.93;;;;;;;13.74;83.00;102266.81;5017365;28;20113;-72
2023/05/13 07:16:07;;;;;;;12.15;10.95;;;;;;;13.78;82.67;102266.66;5018496;28;20041;-72
2023/05/13 07:18:33;;;;;;;18.13;12.00;;;;;;;13.85;82.09;102263.84;5016946;28;20038;-72
2023/05/13 07:20:58;;;;;;;16.50;11.48;;;;;;;13.89;82.17;102266.31;5016829;28;20056;-73
2023/05/13 07:23:23;;;;;;;17.40;10.85;;;;;;;13.93;81.72;102264.44;5015521;28;20112;-72
2023/05/13 07:25:50;;;;;;;17.73;11.65;;;;;;;13.98;81.01;102271.28;5015796;28;20072;-72
2023/05/13 07:28:16;;;;;;;13.75;11.55;;;;;;;14.03;81.44;102257.97;5015832;28;20052;-73
2023/05/13 07:30:41;;;;;;;14.35;10.75;;;;;;;14.09;81.70;102262.19;5014305;28;20033;-73
2023/05/13 07:33:07;;;;;;;13.75;10.40;;;;;;;14.14;81.12;102262.91;5016525;28;20329;-73
2023/05/13 07:35:32;;;;;;;18.52;9.93;;;;;;;14.21;80.50;102261.78;5015948;28;20341;-74
2023/05/13 07:37:57;;;;;;;11.75;9.05;;;;;;;14.28;79.51;102259.78;5015563;28;20411;-73
2023/05/13 07:40:23;;;;;;;12.88;9.50;;;;;;;14.35;78.78;102261.31;5014084;28;20226;-76
2023/05/13 07:42:49;;;;;;;10.85;8.73;;;;;;;14.39;78.45;102265.56;5012278;28;20034;-75
2023/05/13 07:45:14;;;;;;;10.52;9.40;;;;;;;14.46;78.48;102261.81;5015410;28;20303;-74
2023/05/13 07:47:40;;;;;;;13.52;8.75;;;;;;;14.52;78.31;102258.09;5015837;28;20064;-74
2023/05/13 07:50:06;;;;;;;12.05;8.63;;;;;;;14.59;78.36;102254.38;5017245;28;20361;-74
2023/05/13 07:52:31;;;;;;;11.48;8.23;;;;;;;14.64;77.87;102254.19;5016546;28;20371;-74
2023/05/13 07:54:57;;;;;;;15.60;8.00;;;;;;;14.71;77.20;102261.81;5015138;28;20128;-75
2023/05/13 07:57:23;;;;;;;7.85;7.13;;;;;;;14.78;76.91;102254.56;5016846;28;20044;-74
2023/05/13 07:59:48;;;;;;;7.82;7.13;;;;;;;14.85;76.28;102257.88;5015917;28;20061;-74
2023/05/13 08:02:14;;;;;;;11.00;7.35;;;;;;;14.88;75.29;102258.63;5016621;28;20372;-73
2023/05/13 08:04:40;;;;;;;9.57;7.70;;;;;;;14.95;75.06;102253.94;5018377;28;20038;-73
2023/05/13 08:07:05;;;;;;;7.82;7.07;;;;;;;15.01;75.27;102260.78;5017477;28;20087;-74
2023/05/13 08:09:30;;;;;;;7.18;6.60;;;;;;;15.10;74.80;102263.97;5014792;28;20116;-73
2023/05/13 08:11:56;;;;;;;14.13;7.65;;;;;;;15.18;74.49;102262.81;5018177;28;20551;-73
2023/05/13 08:14:22;;;;;;;10.00;6.90;;;;;;;15.24;74.04;102259.94;5016358;28;20091;-73
2023/05/13 08:16:47;;;;;;;12.13;7.05;;;;;;;15.31;73.57;102257.00;5012295;28;20095;-73
2023/05/13 08:19:13;;;;;;;8.05;6.68;;;;;;;15.38;73.02;102257.63;5015992;28;20265;-73
2023/05/13 08:21:39;;;;;;;10.25;6.60;;;;;;;15.44;72.80;102259.16;5013564;28;20087;-72
2023/05/13 08:24:05;;;;;;;10.52;6.78;;;;;;;15.48;73.20;102259.00;5016835;28;20041;-73
2023/05/13 08:26:30;;;;;;;7.13;6.03;;;;;;;15.55;73.04;102257.84;5016300;28;20045;-73
2023/05/13 08:28:56;;;;;;;9.32;6.28;;;;;;;15.61;73.17;102261.16;5013113;28;20052;-73
2023/05/13 08:31:23;;;;;;;17.83;6.80;;;;;;;15.67;72.79;102260.94;5014822;28;20034;-73
2023/05/13 08:33:49;;;;;;;8.38;6.22;;;;;;;15.71;72.64;102260.72;5013631;28;20033;-73
2023/05/13 08:36:15;;;;;;;9.30;6.10;;;;;;;15.78;72.11;102258.75;5014236;28;20076;-73
2023/05/13 08:38:42;;;;;;;6.05;5.55;;;;;;;15.85;69.57;102257.56;5014760;28;20096;-73
2023/05/13 08:41:12;;;;;;;5.85;5.28;;;;;;;15.92;69.12;102264.34;5015136;28;20041;-73
2023/05/13 08:43:38;;;;;;;6.07;5.45;;;;;;;16.03;69.10;102260.41;5015408;28;20237;-73
2023/05/13 08:46:07;;;;;;;9.10;5.00;;;;;;;16.09;68.70;102258.34;5014636;28;20107;-73
2023/05/13 08:48:34;;;;;;;5.45;5.05;;;;;;;16.14;68.23;102263.47;5014469;28;20224;-73
2023/05/13 08:51:01;;;;;;;7.07;5.05;;;;;;;16.17;68.36;102260.69;5015890;28;20046;-73
2023/05/13 08:53:27;;;;;;;9.32;5.90;;;;;;;16.23;68.44;102268.34;5014133;28;20037;-73
2023/05/13 08:55:53;;;;;;;5.80;5.20;;;;;;;16.26;68.09;102265.59;5015005;28;20089;-73
2023/05/13 08:58:19;;;;;;;7.57;5.78;;;;;;;16.30;67.77;102264.53;5013062;28;20056;-73
2023/05/13 09:00:44;;;;;;;5.75;5.13;;;;;;;16.34;68.34;102265.28;5014570;28;20089;-73
2023/05/13 09:03:11;;;;;;;11.18;5.10;;;;;;;16.39;67.11;102270.34;5010198;28;20038;-73
2023/05/13 09:05:37;;;;;;;9.50;4.97;;;;;;;16.44;66.34;102271.88;5014231;28;20050;-73
2023/05/13 09:08:10;;;;;;;4.88;4.45;;;;;;;16.52;65.45;102268.91;5011976;28;20261;-73
2023/05/13 09:10:38;;;;;;;4.78;4.30;;;;;;;16.58;65.60;102265.16;5013968;28;20045;-73
2023/05/13 09:13:04;;;;;;;5.38;4.70;;;;;;;16.65;66.02;102269.25;5012564;28;20064;-72
2023/05/13 09:15:30;;;;;;;5.38;4.78;;;;;;;16.70;65.43;102268.09;5013144;28;20088;-73
2023/05/13 09:18:06;;;;;;;6.47;4.90;;;;;;;16.76;65.26;102266.97;5009960;28;20029;-72
2023/05/13 09:20:33;;;;;;;4.78;4.40;;;;;;;16.83;65.34;102264.97;5014047;28;20045;-73
2023/05/13 09:23:07;;;;;;;8.88;4.53;;;;;;;16.87;64.87;102263.91;5014545;28;20196;-73
2023/05/13 09:25:32;;;;;;;6.25;4.80;;;;;;;16.91;64.45;102268.09;5012482;28;20332;-72
2023/05/13 09:28:01;;;;;;;6.28;4.50;;;;;;;16.93;64.66;102274.19;5014990;28;20048;-73
2023/05/13 09:30:27;;;;;;;9.27;4.97;;;;;;;16.96;64.57;102267.91;5012997;28;20093;-72
2023/05/13 09:33:12;;;;;;;5.35;4.25;;;;;;;17.00;64.40;102280.94;5014953;28;20042;-72
2023/05/13 09:35:40;;;;;;;5.53;4.32;;;;;;;17.05;63.52;102268.34;5018348;28;20087;-72
2023/05/13 09:38:16;;;;;;;6.75;4.97;;;;;;;17.09;62.77;102271.72;5019941;28;20048;-73
2023/05/13 09:40:49;;;;;;;8.23;4.78;;;;;;;17.14;64.23;102260.94;5014373;28;20338;-73
2023/05/13 09:43:15;;;;;;;6.05;4.63;;;;;;;17.18;63.42;102270.44;5014637;28;20062;-73
2023/05/13 09:45:40;;;;;;;9.15;4.80;;;;;;;17.21;62.39;102260.56;5018415;28;20056;-73
2023/05/13 09:48:07;;;;;;;6.60;4.55;;;;;;;17.25;62.80;102259.50;5022061;28;20033;-73
2023/05/13 09:50:32;;;;;;;9.48;4.50;;;;;;;17.29;62.32;102265.50;5018805;28;20038;-73
2023/05/13 09:53:09;;;;;;;8.95;4.68;;;;;;;17.35;62.21;102254.63;5021769;28;20111;-73
2023/05/13 09:55:35;;;;;;;6.75;4.60;;;;;;;17.41;62.33;102264.09;5015720;28;20029;-73
2023/05/13 09:58:01;;;;;;;5.63;4.88;;;;;;;17.44;61.89;102264.81;5017583;28;20066;-73
2023/05/13 10:00:26;;;;;;;7.07;4.93;;;;;;;17.51;61.40;102251.25;5014962;28;20041;-72
2023/05/13 10:02:52;;;;;;;7.82;5.10;;;;;;;17.55;60.61;102256.31;5010703;28;20057;-72
2023/05/13 10:05:17;;;;;;;8.88;4.97;;;;;;;17.62;60.42;102254.25;5013735;28;20041;-72
2023/05/13 10:07:43;;;;;;;5.68;5.18;;;;;;;17.63;60.73;102253.34;5016998;28;20331;-72
2023/05/13 10:10:09;;;;;;;6.72;4.43;;;;;;;17.67;61.13;102259.34;5016357;28;20040;-73
2023/05/13 10:12:38;;;;;;;5.85;4.50;;;;;;;17.70;60.29;102249.47;5013434;28;20100;-73
2023/05/13 10:15:04;;;;;;;7.90;4.57;;;;;;;17.73;61.25;102257.25;5010978;28;20072;-73
2023/05/13 10:17:31;;;;;;;6.93;4.40;;;;;;;17.79;62.10;102246.38;5015146;28;20084;-73
2023/05/13 10:19:57;;;;;;;5.40;4.72;;;;;;;17.83;61.72;102245.28;5018340;28;20040;-73
2023/05/13 10:22:30;;;;;;;5.78;4.13;;;;;;;17.88;61.84;102245.06;5019581;28;20038;-73
2023/05/13 10:25:01;;;;;;;7.25;4.35;;;;;;;17.94;59.36;102250.06;5017432;28;20132;-73
2023/05/13 10:27:32;;;;;;;5.95;3.97;;;;;;;17.99;59.04;102249.84;5017305;28;20049;-76
2023/05/13 10:30:00;;;;;;;5.38;4.18;;;;;;;18.02;60.00;102245.25;5021146;28;20049;-73
2023/05/13 10:32:29;;;;;;;5.55;4.30;;;;;;;18.06;59.99;102243.28;5018954;28;20329;-73
2023/05/13 10:35:02;;;;;;;4.95;4.07;;;;;;;18.14;59.93;102246.44;5018362;28;20099;-73
2023/05/13 10:37:42;;;;;;;5.32;3.85;;;;;;;18.24;59.35;102236.22;5013471;28;20143;-73
2023/05/13 10:40:26;;;;;;;10.52;4.20;;;;;;;18.30;59.51;102241.22;5017012;28;20048;-73
2023/05/13 10:43:15;;;;;;;6.70;4.22;;;;;;;18.34;58.16;102228.66;5018064;28;20221;-73
2023/05/13 10:45:49;;;;;;;10.10;4.38;;;;;;;18.37;58.16;102224.06;5016445;28;20282;-73
2023/05/13 10:48:16;;;;;;;5.93;3.72;;;;;;;18.40;59.03;102234.47;5014246;28;20042;-73
2023/05/13 10:50:55;;;;;;;5.57;3.63;;;;;;;18.45;57.80;102230.75;5014161;28;20341;-73
2023/05/13 10:53:31;;;;;;;8.10;4.50;;;;;;;18.46;57.21;102222.69;5013517;28;20278;-73
2023/05/13 10:55:59;;;;;;;4.00;3.65;;;;;;;18.47;56.86;102227.06;5013980;28;20053;-73
2023/05/13 10:58:29;;;;;;;4.75;3.65;;;;;;;18.49;56.66;102222.53;5010605;28;20029;-73
2023/05/13 11:01:18;;;;;;;6.22;4.15;;;;;;;18.52;56.91;102225.06;5012371;28;20080;-73
2023/05/13 11:03:52;;;;;;;11.75;4.65;;;;;;;18.53;58.53;102221.44;5012436;28;20056;-73
2023/05/13 11:06:25;;;;;;;5.38;3.72;;;;;;;18.59;59.27;102228.22;5012919;28;20044;-73
2023/05/13 11:08:51;;;;;;;5.78;3.75;;;;;;;18.62;56.70;102225.41;5016092;28;20038;-73
2023/05/13 11:11:23;;;;;;;6.78;3.67;;;;;;;18.67;56.75;102225.19;5016680;28;20038;-73
2023/05/13 11:13:49;;;;;;;6.97;3.90;;;;;;;18.68;57.38;102214.50;5014281;28;20325;-73
2023/05/13 11:16:15;;;;;;;4.72;4.28;;;;;;;18.73;56.75;102220.38;5016539;28;20045;-73
2023/05/13 11:18:40;;;;;;;6.93;4.82;;;;;;;18.76;57.35;102222.03;5016715;28;20109;-73
2023/05/13 11:21:07;;;;;;;6.75;4.88;;;;;;;18.78;58.38;102220.16;5017334;28;20072;-73